Time;durP1;ratioP1;P1;durP2;ratioP2;P2;SDS_P1;SDS_P2;PMS_P1;PMS_P2;Temp;Humidity;BMP_temperature;BMP_pressure;BME280_temperature;BME280_humidity;BME280_pressure;Samples;Min_cycle;Max_cycle;Signal;HPM_P1;HPM_P2
2023/06/12 00:02:07;;;;;;;8.10;4.97;;;22.30;55.50;;;;;;5058772;28;20494;-78
2023/06/12 00:04:34;;;;;;;6.50;4.90;;;22.30;55.30;;;;;;5055770;28;20480;-77
2023/06/12 00:07:01;;;;;;;5.40;4.90;;;22.30;55.40;;;;;;5056809;28;20475;-77
2023/06/12 00:09:29;;;;;;;5.43;4.93;;;22.30;55.50;;;;;;5055560;28;20859;-77
2023/06/12 00:11:56;;;;;;;7.20;5.80;;;22.30;55.70;;;;;;5056648;28;20459;-76
2023/06/12 00:14:26;;;;;;;5.10;4.70;;;22.30;55.50;;;;;;5057723;28;20540;-75
2023/06/12 00:16:53;;;;;;;6.50;5.90;;;22.30;55.50;;;;;;5057322;28;20493;-77
2023/06/12 00:19:20;;;;;;;6.20;5.80;;;22.30;55.50;;;;;;5062386;28;20953;-76
2023/06/12 00:21:47;;;;;;;5.30;4.90;;;22.20;55.50;;;;;;5061045;28;20878;-78
2023/06/12 00:24:17;;;;;;;4.80;4.40;;;22.20;56.00;;;;;;5065097;28;20469;-78
2023/06/12 00:26:44;;;;;;;5.20;4.63;;;22.20;56.10;;;;;;5063139;28;20471;-76
2023/06/12 00:29:11;;;;;;;6.43;5.80;;;22.20;55.60;;;;;;5063636;28;20531;-76
2023/06/12 00:31:40;;;;;;;5.17;4.70;;;22.10;55.30;;;;;;5065547;28;20459;-77
2023/06/12 00:34:07;;;;;;;5.90;5.33;;;22.10;55.30;;;;;;5062728;28;20973;-78
2023/06/12 00:36:34;;;;;;;5.37;4.97;;;22.00;55.10;;;;;;5063988;28;20471;-78
2023/06/12 00:39:02;;;;;;;4.97;4.57;;;22.00;55.00;;;;;;5064495;28;20471;-77
2023/06/12 00:41:29;;;;;;;7.93;4.90;;;22.00;55.10;;;;;;5061626;28;20486;-78
2023/06/12 00:43:56;;;;;;;5.07;4.67;;;22.00;55.00;;;;;;5063456;28;20925;-77
2023/06/12 00:46:26;;;;;;;5.37;4.97;;;22.00;55.00;;;;;;5063493;28;20868;-77
2023/06/12 00:48:54;;;;;;;5.40;5.00;;;22.00;55.00;;;;;;5061650;28;20536;-75
2023/06/12 00:51:28;;;;;;;6.70;5.10;;;22.00;54.80;;;;;;5052444;28;20467;-74
2023/06/12 00:53:56;;;;;;;5.57;4.87;;;21.90;54.70;;;;;;5058831;28;20551;-76
2023/06/12 00:56:24;;;;;;;5.20;4.80;;;21.90;54.40;;;;;;5058842;28;20548;-75
2023/06/12 00:58:52;;;;;;;5.40;5.00;;;21.90;54.50;;;;;;5058483;28;20490;-75
2023/06/12 01:01:25;;;;;;;5.73;5.27;;;21.80;54.60;;;;;;5059694;28;20468;-74
2023/06/12 01:03:56;;;;;;;5.47;4.27;;;21.80;54.50;;;;;;5061411;28;20466;-77
2023/06/12 01:06:34;;;;;;;5.20;4.70;;;21.80;54.50;;;;;;5062196;28;20467;-77
2023/06/12 01:09:09;;;;;;;5.57;5.17;;;21.80;54.50;;;;;;5061794;28;20481;-77
2023/06/12 01:11:37;;;;;;;4.30;4.00;;;21.70;54.20;;;;;;5061960;28;20520;-76
2023/06/12 01:14:06;;;;;;;5.27;4.83;;;21.70;54.20;;;;;;5057502;28;20455;-75
2023/06/12 01:16:33;;;;;;;5.97;5.37;;;21.70;54.10;;;;;;5058302;28;20467;-75
2023/06/12 01:19:01;;;;;;;5.80;5.30;;;21.70;54.10;;;;;;5058218;28;21064;-75
2023/06/12 01:21:32;;;;;;;5.27;4.90;;;21.70;54.10;;;;;;5057610;28;20487;-74
2023/06/12 01:24:30;;;;;;;5.20;4.37;;;21.60;54.00;;;;;;5057269;28;20532;-75
2023/06/12 01:27:21;;;;;;;4.57;4.27;;;21.60;54.10;;;;;;5059330;28;20527;-75
2023/06/12 01:30:07;;;;;;;4.40;4.10;;;21.60;54.20;;;;;;5055616;28;20467;-75
2023/06/12 01:32:37;;;;;;;5.00;4.13;;;21.50;54.10;;;;;;5064086;28;20490;-78
2023/06/12 01:35:13;;;;;;;5.03;4.63;;;21.50;54.10;;;;;;5064579;28;20531;-78
2023/06/12 01:37:44;;;;;;;5.40;3.90;;;21.50;53.80;;;;;;5067756;28;20459;-76
2023/06/12 01:40:13;;;;;;;5.20;4.80;;;21.50;53.80;;;;;;5066679;28;20502;-79
2023/06/12 01:42:44;;;;;;;4.83;4.37;;;21.40;53.60;;;;;;5063317;28;20570;-77
2023/06/12 01:45:13;;;;;;;4.97;4.47;;;21.40;53.40;;;;;;5066571;28;20486;-77
2023/06/12 01:47:41;;;;;;;4.20;3.90;;;21.40;53.30;;;;;;5068170;28;20538;-77
2023/06/12 01:50:10;;;;;;;6.93;4.10;;;21.40;53.20;;;;;;5071636;28;20456;-77
2023/06/12 01:52:38;;;;;;;6.27;4.20;;;21.30;53.10;;;;;;5072425;28;20493;-77
2023/06/12 01:55:05;;;;;;;4.20;3.90;;;21.30;53.10;;;;;;5066873;28;20471;-76
2023/06/12 01:57:33;;;;;;;4.70;4.30;;;21.30;53.00;;;;;;5070428;28;20518;-78
2023/06/12 02:00:04;;;;;;;4.83;4.37;;;21.20;52.40;;;;;;5071133;28;20535;-76
2023/06/12 02:02:32;;;;;;;4.30;4.00;;;21.20;52.50;;;;;;5068576;28;21039;-77
2023/06/12 02:05:01;;;;;;;5.10;4.70;;;21.20;52.50;;;;;;5066351;28;20547;-77
2023/06/12 02:07:28;;;;;;;4.90;4.50;;;21.20;52.40;;;;;;5062924;28;20467;-74
2023/06/12 02:09:55;;;;;;;4.37;3.97;;;21.20;52.30;;;;;;5061244;28;20470;-77
2023/06/12 02:12:22;;;;;;;4.20;3.80;;;21.20;52.20;;;;;;5061923;28;20521;-77
2023/06/12 02:14:50;;;;;;;4.27;3.87;;;21.10;52.20;;;;;;5053725;28;20558;-78
2023/06/12 02:17:18;;;;;;;7.23;4.80;;;21.10;52.30;;;;;;5060342;28;20451;-77
2023/06/12 02:19:47;;;;;;;5.30;4.80;;;21.10;52.20;;;;;;5058504;28;20463;-74
2023/06/12 02:22:16;;;;;;;4.43;4.07;;;21.10;52.20;;;;;;5058357;28;20455;-77
2023/06/12 02:24:43;;;;;;;5.50;5.00;;;21.00;52.00;;;;;;5058520;28;20494;-77
2023/06/12 02:27:12;;;;;;;5.87;3.53;;;21.10;51.90;;;;;;5059466;28;20475;-78
2023/06/12 02:29:39;;;;;;;4.50;4.00;;;21.10;51.90;;;;;;5057680;28;20475;-75
2023/06/12 02:32:06;;;;;;;5.27;3.90;;;21.00;51.70;;;;;;5057825;28;20537;-78
2023/06/12 02:34:33;;;;;;;6.20;4.00;;;21.00;51.80;;;;;;5058386;28;20467;-76
2023/06/12 02:37:02;;;;;;;9.23;5.77;;;20.90;51.80;;;;;;5057226;28;20529;-76
2023/06/12 02:39:32;;;;;;;4.43;4.03;;;20.90;51.90;;;;;;5057893;28;20463;-77
2023/06/12 02:42:01;;;;;;;4.90;4.50;;;20.90;52.30;;;;;;5058699;28;20471;-76
2023/06/12 02:44:28;;;;;;;4.40;4.00;;;20.80;52.70;;;;;;5060670;28;20523;-75
2023/06/12 02:46:56;;;;;;;4.90;4.50;;;20.70;53.10;;;;;;5061282;28;20467;-77
2023/06/12 02:49:25;;;;;;;5.90;5.30;;;20.70;53.60;;;;;;5057494;28;20466;-74
2023/06/12 02:51:53;;;;;;;4.87;4.37;;;20.60;54.00;;;;;;5054815;28;20463;-74
2023/06/12 02:54:22;;;;;;;4.87;4.47;;;20.50;54.50;;;;;;5053899;28;20464;-75
2023/06/12 02:56:50;;;;;;;5.13;4.73;;;20.50;54.70;;;;;;5055739;28;20471;-77
2023/06/12 02:59:19;;;;;;;4.83;4.43;;;20.50;55.10;;;;;;5054016;28;20471;-77
2023/06/12 03:01:47;;;;;;;4.90;4.40;;;20.40;55.30;;;;;;5054192;28;20487;-75
2023/06/12 03:04:18;;;;;;;5.43;4.80;;;20.30;55.40;;;;;;5053393;28;20793;-75
2023/06/12 03:06:47;;;;;;;5.23;4.73;;;20.20;55.70;;;;;;5053789;28;20467;-74
2023/06/12 03:09:16;;;;;;;4.93;4.53;;;20.20;55.90;;;;;;5054664;28;20471;-77
2023/06/12 03:11:44;;;;;;;5.33;4.83;;;20.20;56.10;;;;;;5054217;28;20466;-77
2023/06/12 03:14:13;;;;;;;5.07;4.67;;;20.10;56.20;;;;;;5053650;28;20464;-78
2023/06/12 03:16:41;;;;;;;6.60;4.67;;;20.10;56.60;;;;;;5054685;28;20471;-78
2023/06/12 03:19:11;;;;;;;5.13;4.73;;;20.00;56.80;;;;;;5054749;28;20466;-80
2023/06/12 03:21:38;;;;;;;5.07;4.70;;;19.90;56.90;;;;;;5054511;28;20490;-78
2023/06/12 03:24:07;;;;;;;5.00;4.60;;;19.80;57.00;;;;;;5054122;28;20498;-78
2023/06/12 03:26:36;;;;;;;6.60;4.93;;;19.80;57.00;;;;;;5054353;28;20475;-76
2023/06/12 03:29:03;;;;;;;5.03;4.63;;;19.80;57.20;;;;;;5051622;28;20471;-78
2023/06/12 03:31:31;;;;;;;5.43;5.03;;;19.70;57.20;;;;;;5054182;28;20808;-78
2023/06/12 03:33:58;;;;;;;5.00;4.50;;;19.70;57.20;;;;;;5053063;28;20490;-75
2023/06/12 03:36:28;;;;;;;5.90;4.57;;;19.60;57.20;;;;;;5052964;28;20487;-78
2023/06/12 03:39:02;;;;;;;5.70;4.90;;;19.60;57.30;;;;;;5053642;28;20831;-77
2023/06/12 03:41:31;;;;;;;6.13;5.53;;;19.60;57.40;;;;;;5042782;28;21070;-75
2023/06/12 03:43:59;;;;;;;7.03;5.43;;;19.60;57.50;;;;;;5054229;28;20483;-75
2023/06/12 03:46:26;;;;;;;8.73;5.10;;;19.60;57.30;;;;;;5053790;28;20482;-77
2023/06/12 03:48:54;;;;;;;8.70;4.80;;;19.60;57.20;;;;;;5053748;28;20481;-75
2023/06/12 03:51:21;;;;;;;5.30;4.40;;;19.60;57.10;;;;;;5053398;28;20468;-74
2023/06/12 03:53:49;;;;;;;7.50;4.53;;;19.60;57.10;;;;;;5053525;28;20491;-77
2023/06/12 03:56:15;;;;;;;5.30;4.20;;;19.60;57.10;;;;;;5053212;28;20826;-75
2023/06/12 03:58:43;;;;;;;4.60;4.20;;;19.60;57.00;;;;;;5053462;28;20467;-74
2023/06/12 04:01:10;;;;;;;7.23;5.03;;;19.60;57.20;;;;;;5053362;28;20561;-77
2023/06/12 04:03:38;;;;;;;5.40;4.93;;;19.60;56.90;;;;;;5053189;28;20455;-77
2023/06/12 04:06:07;;;;;;;4.57;4.13;;;19.60;56.90;;;;;;5053101;28;20471;-75
2023/06/12 04:08:37;;;;;;;6.10;4.20;;;19.60;56.70;;;;;;5053716;28;20447;-77
2023/06/12 04:11:08;;;;;;;5.13;4.73;;;19.60;56.80;;;;;;5057044;28;20471;-77
2023/06/12 04:13:35;;;;;;;7.47;4.17;;;19.70;56.90;;;;;;5056482;28;20917;-77
2023/06/12 04:16:04;;;;;;;4.23;3.93;;;19.70;56.80;;;;;;5057160;28;20555;-77
2023/06/12 04:18:32;;;;;;;6.53;4.50;;;19.70;56.90;;;;;;5056170;28;20471;-75
2023/06/12 04:21:00;;;;;;;5.40;4.20;;;19.70;56.50;;;;;;5056075;28;20481;-77
2023/06/12 04:23:31;;;;;;;4.97;4.00;;;19.70;56.70;;;;;;5056619;28;20471;-75
2023/06/12 04:26:04;;;;;;;4.97;4.40;;;19.80;56.70;;;;;;5056421;28;20463;-78
2023/06/12 04:28:32;;;;;;;5.37;4.87;;;19.80;56.60;;;;;;5056321;28;20471;-74
2023/06/12 04:30:59;;;;;;;5.40;4.60;;;19.80;56.50;;;;;;5056682;28;20556;-77
2023/06/12 04:33:30;;;;;;;6.70;4.20;;;19.80;56.40;;;;;;5055927;28;20498;-77
2023/06/12 04:35:57;;;;;;;4.90;3.73;;;19.80;56.30;;;;;;5056988;28;20475;-78
2023/06/12 04:38:30;;;;;;;5.13;4.37;;;19.90;56.40;;;;;;5055573;28;20830;-75
2023/06/12 04:40:59;;;;;;;7.87;4.83;;;19.90;56.30;;;;;;5056455;28;20482;-78
2023/06/12 04:43:27;;;;;;;5.50;4.97;;;19.90;56.40;;;;;;5056014;28;20470;-75
2023/06/12 04:45:55;;;;;;;6.23;3.90;;;19.90;56.70;;;;;;5054977;28;20480;-75
2023/06/12 04:48:22;;;;;;;5.90;4.70;;;20.00;56.80;;;;;;5056063;28;20506;-78
2023/06/12 04:50:56;;;;;;;4.07;3.77;;;20.00;56.50;;;;;;5056362;28;20951;-76
2023/06/12 04:53:27;;;;;;;5.00;3.37;;;20.00;56.60;;;;;;5056416;28;20463;-75
2023/06/12 04:55:56;;;;;;;4.63;4.27;;;20.10;56.70;;;;;;5057439;28;20558;-78
2023/06/12 04:58:23;;;;;;;5.10;4.60;;;20.20;56.70;;;;;;5056399;28;20474;-77
2023/06/12 05:00:55;;;;;;;5.50;4.17;;;20.20;56.90;;;;;;5056532;28;20806;-78
2023/06/12 05:03:22;;;;;;;5.20;4.30;;;20.20;56.50;;;;;;5056293;28;20471;-77
2023/06/12 05:05:49;;;;;;;5.10;4.20;;;20.20;56.10;;;;;;5056362;28;20478;-78
2023/06/12 05:08:20;;;;;;;8.43;5.60;;;20.20;56.30;;;;;;5057953;28;20471;-75
2023/06/12 05:10:47;;;;;;;4.63;4.10;;;20.20;56.50;;;;;;5054667;28;20906;-76
2023/06/12 05:13:18;;;;;;;7.30;4.60;;;20.30;56.70;;;;;;5058806;28;20471;-77
2023/06/12 05:15:45;;;;;;;5.43;4.37;;;20.30;56.60;;;;;;5060407;28;20491;-75
2023/06/12 05:18:13;;;;;;;5.53;4.60;;;20.40;56.30;;;;;;5061072;28;20459;-75
2023/06/12 05:20:42;;;;;;;4.67;3.93;;;20.40;56.10;;;;;;5057734;28;20471;-75
2023/06/12 05:23:09;;;;;;;7.60;4.93;;;20.50;56.20;;;;;;5061032;28;20566;-77
2023/06/12 05:25:36;;;;;;;5.47;4.90;;;20.50;56.40;;;;;;5062770;28;20467;-79
2023/06/12 05:28:04;;;;;;;5.83;4.67;;;20.60;56.40;;;;;;5059191;28;20482;-75
2023/06/12 05:30:33;;;;;;;6.17;4.47;;;20.70;56.40;;;;;;5064336;28;20463;-78
2023/06/12 05:33:00;;;;;;;8.03;5.33;;;20.70;56.50;;;;;;5060803;28;20542;-76
2023/06/12 05:35:27;;;;;;;4.60;4.20;;;20.80;56.70;;;;;;5056087;28;20467;-76
2023/06/12 05:37:55;;;;;;;9.17;5.77;;;20.90;56.80;;;;;;5056773;28;20491;-78
2023/06/12 05:40:22;;;;;;;12.53;5.57;;;20.90;56.20;;;;;;5046606;28;20536;-79
2023/06/12 05:42:51;;;;;;;7.73;5.20;;;21.00;56.20;;;;;;5057186;28;20471;-79
2023/06/12 05:45:20;;;;;;;4.90;4.27;;;21.10;56.00;;;;;;5057313;28;20468;-76
2023/06/12 05:47:48;;;;;;;13.90;4.43;;;21.20;55.70;;;;;;5055033;28;20544;-78
2023/06/12 05:50:16;;;;;;;7.30;5.63;;;21.30;55.40;;;;;;5056814;28;20864;-78
2023/06/12 05:52:49;;;;;;;7.20;4.73;;;21.30;55.60;;;;;;5056259;28;20825;-75
2023/06/12 05:55:17;;;;;;;4.87;4.47;;;21.50;55.50;;;;;;5057443;28;20471;-76
2023/06/12 05:57:45;;;;;;;4.53;4.13;;;21.50;55.50;;;;;;5054130;28;20485;-77
2023/06/12 06:00:15;;;;;;;5.40;4.03;;;21.60;55.30;;;;;;5055223;28;20475;-77
2023/06/12 06:02:43;;;;;;;8.83;3.93;;;21.70;55.20;;;;;;5052969;28;20503;-77
2023/06/12 06:05:12;;;;;;;5.90;3.93;;;21.90;55.10;;;;;;5055453;28;20949;-77
2023/06/12 06:07:39;;;;;;;4.80;4.30;;;22.00;55.10;;;;;;5054600;28;20778;-77
2023/06/12 06:10:07;;;;;;;7.27;5.07;;;22.10;55.10;;;;;;5055012;28;20545;-78
2023/06/12 06:12:35;;;;;;;9.93;5.00;;;22.20;55.20;;;;;;5053814;28;20485;-75
2023/06/12 06:15:02;;;;;;;5.40;4.20;;;22.30;55.10;;;;;;5053574;28;20495;-76
2023/06/12 06:17:29;;;;;;;8.63;4.47;;;22.50;55.00;;;;;;5053986;28;20467;-74
2023/06/12 06:19:56;;;;;;;4.63;4.23;;;22.60;54.70;;;;;;5053160;28;20455;-75
2023/06/12 06:22:25;;;;;;;4.87;4.37;;;22.70;54.80;;;;;;5053012;28;20482;-75
2023/06/12 06:24:53;;;;;;;7.77;4.17;;;22.90;55.00;;;;;;5052940;28;20540;-77
2023/06/12 06:27:24;;;;;;;9.70;4.73;;;23.10;54.90;;;;;;5054590;28;20479;-77
2023/06/12 06:29:53;;;;;;;8.07;4.27;;;23.20;54.50;;;;;;5053992;28;20463;-77
2023/06/12 06:32:20;;;;;;;8.30;4.30;;;23.40;54.50;;;;;;5053049;28;20478;-77
2023/06/12 06:34:47;;;;;;;7.97;5.40;;;23.50;54.60;;;;;;5052640;28;20482;-75
2023/06/12 06:37:14;;;;;;;7.30;4.63;;;23.70;54.40;;;;;;5053660;28;20459;-78
2023/06/12 06:39:42;;;;;;;7.97;3.57;;;23.90;54.30;;;;;;5053050;28;20477;-77
2023/06/12 06:42:10;;;;;;;6.90;4.67;;;24.00;53.60;;;;;;5053000;28;21014;-75
2023/06/12 06:44:37;;;;;;;6.10;4.60;;;24.20;53.80;;;;;;5052279;28;21022;-75
2023/06/12 06:47:04;;;;;;;6.70;4.30;;;24.40;54.10;;;;;;5052971;28;20463;-75
2023/06/12 06:49:32;;;;;;;5.73;3.97;;;24.60;54.10;;;;;;5053792;28;20467;-77
2023/06/12 06:51:59;;;;;;;9.73;4.13;;;24.70;53.80;;;;;;5053447;28;20447;-75
2023/06/12 06:54:26;;;;;;;6.17;3.90;;;24.90;53.80;;;;;;5053368;28;20585;-77
2023/06/12 06:56:54;;;;;;;5.27;4.77;;;25.10;53.20;;;;;;5051684;28;20526;-78
2023/06/12 06:59:21;;;;;;;6.57;4.47;;;25.30;52.90;;;;;;5053318;28;20482;-75
2023/06/12 07:01:51;;;;;;;9.20;4.93;;;25.40;52.80;;;;;;5052489;28;20478;-75
2023/06/12 07:04:18;;;;;;;6.93;5.03;;;25.50;52.40;;;;;;5052951;28;20505;-75
2023/06/12 07:06:45;;;;;;;6.23;4.97;;;25.60;52.30;;;;;;5051884;28;20541;-75
2023/06/12 07:09:18;;;;;;;7.83;4.33;;;25.80;52.30;;;;;;5053055;28;20537;-75
2023/06/12 07:11:45;;;;;;;5.40;4.90;;;26.00;52.20;;;;;;5052242;28;20498;-76
2023/06/12 07:14:13;;;;;;;7.53;5.20;;;26.20;51.70;;;;;;5052905;28;20464;-75
2023/06/12 07:16:40;;;;;;;12.70;4.63;;;26.30;51.90;;;;;;5052297;28;20479;-75
2023/06/12 07:19:07;;;;;;;10.43;4.80;;;26.50;51.50;;;;;;5053194;28;20478;-78
2023/06/12 07:21:35;;;;;;;5.23;4.20;;;26.70;51.50;;;;;;5042456;28;20484;-75
2023/06/12 07:24:02;;;;;;;8.07;4.70;;;26.70;50.70;;;;;;5051677;28;20464;-75
2023/06/12 07:26:29;;;;;;;5.60;4.13;;;26.90;49.60;;;;;;5052998;28;20476;-75
2023/06/12 07:28:57;;;;;;;7.87;4.90;;;26.90;50.00;;;;;;5052147;28;20551;-75
2023/06/12 07:31:26;;;;;;;6.20;4.77;;;27.10;49.80;;;;;;5052714;28;20475;-74
2023/06/12 07:33:53;;;;;;;4.77;4.30;;;27.30;50.00;;;;;;5052964;28;20472;-77
2023/06/12 07:36:21;;;;;;;4.97;4.10;;;27.50;49.90;;;;;;5052873;28;20476;-77
2023/06/12 07:38:48;;;;;;;4.60;4.20;;;27.60;48.50;;;;;;5052668;28;20504;-74
2023/06/12 07:41:15;;;;;;;5.73;4.80;;;27.70;48.50;;;;;;5051837;28;20472;-75
2023/06/12 07:43:43;;;;;;;5.33;4.50;;;27.90;48.30;;;;;;5053902;28;21000;-75
2023/06/12 07:46:10;;;;;;;6.03;4.20;;;27.90;47.20;;;;;;5056481;28;20469;-78
2023/06/12 07:48:39;;;;;;;7.13;4.27;;;28.10;47.80;;;;;;5056959;28;20482;-74
2023/06/12 07:51:06;;;;;;;7.77;4.33;;;28.10;46.70;;;;;;5056081;28;20979;-77
2023/06/12 07:53:34;;;;;;;4.70;4.10;;;28.20;46.00;;;;;;5056317;28;20459;-74
2023/06/12 07:56:01;;;;;;;5.60;4.07;;;28.30;46.50;;;;;;5056263;28;20478;-75
2023/06/12 07:58:28;;;;;;;8.37;4.70;;;28.40;46.50;;;;;;5056465;28;20467;-75
2023/06/12 08:00:55;;;;;;;6.00;4.67;;;28.40;46.10;;;;;;5056190;28;20466;-75
2023/06/12 08:03:25;;;;;;;4.83;3.60;;;28.50;44.70;;;;;;5056497;28;20799;-78
2023/06/12 08:05:53;;;;;;;4.90;4.37;;;28.50;44.30;;;;;;5055850;28;20499;-75
2023/06/12 08:08:21;;;;;;;6.80;4.70;;;28.60;44.40;;;;;;5056845;28;20493;-78
2023/06/12 08:10:48;;;;;;;4.30;3.90;;;28.60;44.50;;;;;;5055352;28;20474;-75
2023/06/12 08:13:15;;;;;;;4.60;4.20;;;28.70;44.30;;;;;;5056161;28;20952;-78
2023/06/12 08:15:42;;;;;;;5.17;4.67;;;28.70;43.30;;;;;;5056276;28;20499;-75
2023/06/12 08:18:10;;;;;;;4.90;4.40;;;28.70;42.70;;;;;;5055468;28;20459;-76
2023/06/12 08:20:37;;;;;;;4.83;4.30;;;28.60;42.70;;;;;;5056252;28;20520;-74
2023/06/12 08:23:06;;;;;;;5.10;4.40;;;28.60;43.30;;;;;;5055574;28;20790;-76
2023/06/12 08:25:34;;;;;;;6.10;4.40;;;28.70;42.30;;;;;;5056142;28;20840;-76
2023/06/12 08:28:02;;;;;;;4.80;4.30;;;28.60;41.90;;;;;;5054652;28;20527;-78
2023/06/12 08:30:29;;;;;;;4.47;4.10;;;28.50;42.20;;;;;;5055732;28;20525;-78
2023/06/12 08:32:56;;;;;;;4.70;4.20;;;28.50;41.90;;;;;;5055220;28;21043;-78
2023/06/12 08:35:23;;;;;;;4.13;3.80;;;28.60;41.90;;;;;;5055290;28;20470;-77
2023/06/12 08:37:50;;;;;;;5.90;3.97;;;28.50;42.20;;;;;;5055587;28;20471;-77
2023/06/12 08:40:18;;;;;;;5.93;3.70;;;28.60;42.10;;;;;;5054982;28;20533;-77
2023/06/12 08:42:53;;;;;;;4.30;4.00;;;28.50;41.80;;;;;;5056334;28;20481;-75
2023/06/12 08:45:21;;;;;;;4.83;4.37;;;28.60;42.10;;;;;;5056653;28;20527;-77
2023/06/12 08:47:49;;;;;;;3.90;3.60;;;28.70;42.60;;;;;;5056791;28;20562;-77
2023/06/12 08:50:18;;;;;;;3.73;3.40;;;28.70;42.60;;;;;;5055614;28;20792;-79
2023/06/12 08:52:47;;;;;;;4.40;4.03;;;28.60;42.30;;;;;;5056392;28;20944;-78
2023/06/12 08:55:15;;;;;;;4.20;3.80;;;28.60;42.20;;;;;;5055163;28;20804;-78
2023/06/12 08:57:44;;;;;;;5.07;3.67;;;28.50;41.40;;;;;;5055644;28;20463;-75
2023/06/12 09:00:13;;;;;;;4.33;3.93;;;28.50;41.30;;;;;;5056078;28;20867;-78
2023/06/12 09:02:47;;;;;;;6.03;3.43;;;28.50;41.20;;;;;;5057057;28;20489;-78
2023/06/12 09:05:17;;;;;;;4.03;3.63;;;28.30;41.40;;;;;;5056303;28;20564;-75
2023/06/12 09:07:48;;;;;;;5.50;5.10;;;28.20;41.80;;;;;;5056019;28;20481;-76
2023/06/12 09:10:16;;;;;;;6.37;4.70;;;28.00;41.90;;;;;;5056088;28;20778;-76
2023/06/12 09:12:45;;;;;;;4.40;4.07;;;28.00;42.30;;;;;;5055194;28;20486;-79
2023/06/12 09:15:18;;;;;;;4.40;4.00;;;27.90;42.50;;;;;;5054878;28;20816;-78
2023/06/12 09:17:47;;;;;;;6.13;4.67;;;27.70;42.60;;;;;;5055700;28;20485;-78
2023/06/12 09:20:17;;;;;;;5.20;4.37;;;27.70;42.90;;;;;;5055212;28;20493;-78
2023/06/12 09:22:44;;;;;;;5.23;4.43;;;27.70;43.00;;;;;;5055186;28;20524;-76
2023/06/12 09:25:12;;;;;;;7.47;3.80;;;27.70;43.50;;;;;;5045834;28;20504;-75
2023/06/12 09:27:44;;;;;;;4.50;4.17;;;27.50;43.40;;;;;;5056772;28;20523;-76
2023/06/12 09:30:12;;;;;;;6.03;4.10;;;27.40;43.50;;;;;;5056591;28;20550;-76
2023/06/12 09:32:41;;;;;;;6.67;4.10;;;27.30;43.60;;;;;;5056369;28;20849;-75
2023/06/12 09:35:10;;;;;;;4.30;3.90;;;27.30;43.90;;;;;;5054572;28;20479;-76
2023/06/12 09:37:38;;;;;;;4.83;4.43;;;27.20;44.30;;;;;;5055518;28;20464;-75
2023/06/12 09:40:10;;;;;;;5.07;4.53;;;27.00;44.50;;;;;;5054740;28;20472;-78
2023/06/12 09:42:37;;;;;;;4.77;4.37;;;27.00;44.30;;;;;;5055619;28;20471;-78
2023/06/12 09:45:13;;;;;;;6.70;4.30;;;27.00;44.50;;;;;;5054786;28;20484;-75
2023/06/12 09:47:42;;;;;;;5.73;4.70;;;26.90;44.50;;;;;;5054512;28;20484;-78
2023/06/12 09:50:11;;;;;;;6.50;5.07;;;27.00;44.80;;;;;;5054987;28;20531;-78
2023/06/12 09:52:40;;;;;;;4.50;4.07;;;27.00;45.00;;;;;;5056928;28;20474;-75
2023/06/12 09:55:09;;;;;;;4.40;4.10;;;26.90;44.70;;;;;;5055685;28;20467;-75
2023/06/12 09:57:38;;;;;;;5.20;4.70;;;26.90;44.40;;;;;;5076770;28;20473;-78
2023/06/12 10:00:11;;;;;;;5.10;4.60;;;26.80;44.90;;;;;;5091079;28;20504;-77
2023/06/12 10:02:43;;;;;;;6.30;4.20;;;26.80;45.30;;;;;;5075187;28;20788;-78
2023/06/12 10:05:17;;;;;;;5.27;4.23;;;26.80;45.30;;;;;;5073888;28;20485;-75
2023/06/12 10:07:48;;;;;;;5.27;4.87;;;26.90;45.70;;;;;;5072421;28;20472;-76
2023/06/12 10:10:16;;;;;;;10.63;3.80;;;26.90;46.00;;;;;;5074235;28;20462;-77
2023/06/12 10:12:44;;;;;;;5.63;4.93;;;26.80;45.70;;;;;;5071777;28;20458;-76
2023/06/12 10:15:13;;;;;;;5.77;5.20;;;26.80;45.90;;;;;;5074112;28;20471;-76
2023/06/12 10:17:42;;;;;;;3.97;3.67;;;26.80;46.10;;;;;;5073782;28;20500;-75
2023/06/12 10:20:11;;;;;;;4.10;3.70;;;26.90;46.00;;;;;;5074164;28;20462;-77
2023/06/12 10:22:41;;;;;;;4.80;4.40;;;26.90;46.00;;;;;;5061511;28;20961;-79
2023/06/12 10:25:16;;;;;;;5.87;4.80;;;26.80;45.90;;;;;;5063932;28;20481;-78
2023/06/12 10:27:45;;;;;;;6.93;5.37;;;26.80;46.60;;;;;;5054552;28;20474;-78
2023/06/12 10:30:13;;;;;;;5.07;4.53;;;26.80;46.70;;;;;;5074203;28;20509;-78
2023/06/12 10:32:43;;;;;;;7.60;4.40;;;26.70;46.90;;;;;;5073614;28;20496;-78
2023/06/12 10:35:11;;;;;;;4.90;4.40;;;26.70;47.70;;;;;;5073922;28;20470;-79
2023/06/12 10:37:42;;;;;;;5.43;4.93;;;26.70;48.00;;;;;;5072786;28;20470;-74
2023/06/12 10:40:15;;;;;;;5.40;5.00;;;26.70;48.30;;;;;;5074336;28;20466;-77
2023/06/12 10:42:44;;;;;;;7.97;4.60;;;26.70;48.40;;;;;;5074013;28;20470;-77
2023/06/12 10:45:22;;;;;;;5.07;4.60;;;26.60;48.70;;;;;;5074376;28;20508;-77
2023/06/12 10:48:17;;;;;;;5.13;4.70;;;26.60;49.20;;;;;;5073516;28;20527;-78
2023/06/12 10:50:56;;;;;;;5.17;4.77;;;26.60;49.10;;;;;;5073424;28;20650;-75
2023/06/12 10:53:25;;;;;;;9.07;4.80;;;26.60;49.50;;;;;;5074308;28;20478;-77
2023/06/12 10:56:04;;;;;;;4.23;3.93;;;26.60;49.90;;;;;;5073744;28;20500;-77
2023/06/12 10:58:37;;;;;;;5.23;4.83;;;26.60;50.00;;;;;;5073875;28;20470;-76
2023/06/12 11:01:08;;;;;;;6.73;6.13;;;26.60;50.00;;;;;;5073335;28;20525;-77
2023/06/12 11:03:39;;;;;;;5.30;4.90;;;26.70;50.30;;;;;;5073837;28;20461;-77
2023/06/12 11:06:15;;;;;;;8.20;4.77;;;26.70;50.30;;;;;;5073436;28;20524;-75
2023/06/12 11:08:46;;;;;;;5.37;4.97;;;26.60;50.40;;;;;;5072701;28;20466;-75
2023/06/12 11:11:19;;;;;;;5.23;4.90;;;26.60;50.30;;;;;;5073366;28;20534;-75
2023/06/12 11:13:47;;;;;;;6.37;4.93;;;26.60;50.10;;;;;;5072872;28;20447;-78
2023/06/12 11:16:14;;;;;;;5.07;4.67;;;26.60;50.00;;;;;;5073302;28;20474;-75
2023/06/12 11:18:43;;;;;;;5.07;4.57;;;26.60;50.00;;;;;;5072418;28;20535;-75
2023/06/12 11:21:11;;;;;;;5.77;5.27;;;26.70;49.50;;;;;;5077772;28;20470;-78
2023/06/12 11:23:42;;;;;;;5.03;4.63;;;26.60;49.60;;;;;;5069000;28;20467;-77
2023/06/12 11:26:10;;;;;;;5.30;4.80;;;26.60;48.20;;;;;;5074870;28;20489;-78
2023/06/12 11:28:37;;;;;;;4.70;4.20;;;26.60;48.30;;;;;;5079143;28;20493;-78
2023/06/12 11:31:07;;;;;;;6.83;4.63;;;26.70;47.30;;;;;;5070948;28;21005;-77
2023/06/12 11:33:34;;;;;;;6.37;5.87;;;26.80;47.00;;;;;;5077842;28;20780;-77
2023/06/12 11:36:03;;;;;;;6.80;5.17;;;26.80;48.60;;;;;;5078805;28;20473;-76
2023/06/12 11:38:30;;;;;;;7.63;4.43;;;26.80;48.90;;;;;;5067612;28;20558;-76
2023/06/12 11:41:01;;;;;;;6.03;4.43;;;26.70;49.20;;;;;;5058428;28;20932;-78
2023/06/12 11:43:30;;;;;;;5.33;5.00;;;26.60;49.50;;;;;;5069219;28;20473;-77
2023/06/12 11:46:01;;;;;;;4.80;4.50;;;26.50;49.40;;;;;;5066587;28;20578;-74
2023/06/12 11:48:32;;;;;;;6.00;4.30;;;26.40;49.60;;;;;;5075707;28;20481;-78
2023/06/12 11:50:59;;;;;;;5.80;4.20;;;26.30;49.40;;;;;;5077640;28;20462;-76
2023/06/12 11:53:27;;;;;;;4.40;4.10;;;26.30;49.60;;;;;;5068402;28;20537;-79
2023/06/12 11:56:00;;;;;;;6.60;4.90;;;26.30;49.20;;;;;;5066350;28;20546;-75
2023/06/12 11:58:33;;;;;;;5.00;4.60;;;26.30;49.50;;;;;;5070597;28;20551;-75
2023/06/12 12:01:14;;;;;;;5.10;4.70;;;26.30;49.20;;;;;;5085961;28;20446;-75
2023/06/12 12:03:44;;;;;;;4.33;4.03;;;26.40;48.80;;;;;;5061125;28;20463;-76
2023/06/12 12:06:11;;;;;;;4.90;4.50;;;26.40;48.90;;;;;;5057197;28;20573;-76
2023/06/12 12:08:40;;;;;;;4.63;4.20;;;26.40;48.60;;;;;;5062212;28;20470;-75
2023/06/12 12:11:16;;;;;;;9.40;5.37;;;26.40;48.50;;;;;;5076482;28;20500;-77
2023/06/12 12:13:51;;;;;;;4.80;4.47;;;26.40;48.50;;;;;;5063829;28;20470;-75
2023/06/12 12:16:22;;;;;;;8.43;5.00;;;26.40;48.50;;;;;;5071877;28;20472;-75
2023/06/12 12:18:50;;;;;;;5.10;4.70;;;26.50;48.50;;;;;;5075738;28;20470;-75
2023/06/12 12:21:18;;;;;;;4.80;4.50;;;26.40;48.10;;;;;;5076161;28;20463;-76
2023/06/12 12:23:47;;;;;;;6.07;4.23;;;26.40;47.50;;;;;;5066534;28;20549;-77
2023/06/12 12:26:18;;;;;;;4.60;4.30;;;26.40;47.60;;;;;;5073764;28;20948;-76
2023/06/12 12:28:45;;;;;;;5.60;4.27;;;26.50;47.60;;;;;;5067454;28;20462;-78
2023/06/12 12:31:12;;;;;;;5.40;4.90;;;26.50;46.60;;;;;;5075695;28;21005;-76
2023/06/12 12:33:39;;;;;;;6.83;5.30;;;26.50;46.70;;;;;;5075865;28;20481;-78
2023/06/12 12:36:07;;;;;;;5.20;4.70;;;26.50;46.80;;;;;;5073476;28;20462;-79
2023/06/12 12:38:34;;;;;;;4.30;3.70;;;26.60;46.80;;;;;;5074991;28;20549;-79
2023/06/12 12:41:04;;;;;;;5.17;4.67;;;26.60;47.00;;;;;;5074274;28;21030;-77
2023/06/12 12:43:31;;;;;;;5.83;5.13;;;26.60;47.00;;;;;;5075189;28;20974;-79
2023/06/12 12:45:59;;;;;;;5.77;5.27;;;26.60;47.20;;;;;;5064266;28;20503;-76
2023/06/12 12:48:26;;;;;;;4.63;4.33;;;26.70;47.20;;;;;;5060225;28;20556;-76
2023/06/12 12:50:53;;;;;;;10.07;5.17;;;26.70;46.90;;;;;;5054693;28;20475;-75
2023/06/12 12:53:20;;;;;;;4.63;4.30;;;26.80;46.90;;;;;;5055800;28;20491;-76
2023/06/12 12:55:47;;;;;;;5.57;4.60;;;26.80;46.40;;;;;;5055224;28;20499;-76